Time;durP1;ratioP1;P1;durP2;ratioP2;P2;SDS_P1;SDS_P2;PMS_P1;PMS_P2;Temp;Humidity;BMP_temperature;BMP_pressure;BME280_temperature;BME280_humidity;BME280_pressure;Samples;Min_cycle;Max_cycle;Signal;HPM_P1;HPM_P2
2022/09/14 00:02:19;;;;;;;22.85;4.53;;;14.40;99.90;;;;;;5014060;28;20077;-71
2022/09/14 00:04:45;;;;;;;32.20;4.32;;;14.30;99.90;;;;;;5014152;28;20073;-71
2022/09/14 00:07:10;;;;;;;25.95;4.85;;;14.20;99.90;;;;;;5016506;28;20061;-71
2022/09/14 00:09:36;;;;;;;38.72;4.07;;;14.10;99.90;;;;;;5018152;28;20131;-71
2022/09/14 00:12:02;;;;;;;18.63;4.53;;;14.00;99.90;;;;;;5018104;28;20473;-71
2022/09/14 00:14:27;;;;;;;26.42;3.65;;;14.00;99.90;;;;;;5018261;28;20073;-71
2022/09/14 00:16:53;;;;;;;34.90;3.67;;;14.00;99.90;;;;;;5018288;28;20098;-71
2022/09/14 00:19:24;;;;;;;21.58;4.28;;;14.10;99.90;;;;;;5017421;28;20084;-71
2022/09/14 00:21:55;;;;;;;19.77;4.50;;;14.20;99.90;;;;;;5017823;28;20026;-71
2022/09/14 00:24:22;;;;;;;21.23;3.88;;;14.20;99.90;;;;;;5017884;28;20061;-71
2022/09/14 00:26:48;;;;;;;21.80;3.42;;;14.20;99.90;;;;;;5017816;28;20026;-71
2022/09/14 00:29:14;;;;;;;27.08;3.95;;;14.20;99.90;;;;;;5017773;28;20092;-71
2022/09/14 00:31:40;;;;;;;26.50;3.97;;;14.20;99.90;;;;;;5018014;28;20096;-71
2022/09/14 00:34:10;;;;;;;18.00;4.10;;;14.20;99.90;;;;;;5016950;28;20470;-71
2022/09/14 00:36:43;;;;;;;13.60;3.15;;;14.30;99.90;;;;;;5018530;28;20022;-71
2022/09/14 00:39:10;;;;;;;21.40;4.15;;;14.30;99.90;;;;;;5017772;28;20018;-71
2022/09/14 00:41:40;;;;;;;20.38;3.55;;;14.20;99.90;;;;;;5017589;28;20038;-71
2022/09/14 00:44:25;;;;;;;28.63;4.72;;;14.20;99.90;;;;;;5018089;28;20084;-72
2022/09/14 00:46:55;;;;;;;31.27;4.55;;;14.20;99.90;;;;;;5009200;28;20474;-71
2022/09/14 00:49:33;;;;;;;25.52;3.72;;;14.20;99.90;;;;;;5037215;28;20060;-71
2022/09/14 00:52:08;;;;;;;27.50;3.60;;;14.20;99.90;;;;;;5037088;28;20028;-71
2022/09/14 00:54:39;;;;;;;17.98;3.47;;;14.20;99.90;;;;;;5019388;28;20109;-72
2022/09/14 00:57:05;;;;;;;25.15;3.42;;;14.20;99.90;;;;;;5016945;28;20068;-71
2022/09/14 00:59:35;;;;;;;24.65;4.22;;;14.20;99.90;;;;;;5017526;28;20474;-72
2022/09/14 01:02:00;;;;;;;18.20;3.90;;;14.20;99.90;;;;;;5028852;28;20029;-71
2022/09/14 01:04:26;;;;;;;24.13;4.05;;;14.30;99.90;;;;;;5036886;28;20042;-71
2022/09/14 01:07:10;;;;;;;31.00;3.83;;;14.20;99.90;;;;;;5036353;28;20037;-71
2022/09/14 01:09:53;;;;;;;22.65;4.10;;;14.10;99.90;;;;;;5037225;28;20079;-71
2022/09/14 01:12:44;;;;;;;22.80;3.30;;;14.00;99.90;;;;;;5052255;28;20047;-71
2022/09/14 01:15:44;;;;;;;23.50;4.25;;;13.80;99.90;;;;;;5036247;28;20036;-71
2022/09/14 01:18:43;;;;;;;22.50;3.97;;;13.80;99.90;;;;;;5022445;28;20034;-72
2022/09/14 01:21:17;;;;;;;16.60;3.70;;;13.80;99.90;;;;;;5016845;28;20030;-71
2022/09/14 01:24:06;;;;;;;23.38;3.30;;;13.80;99.90;;;;;;5017267;28;20474;-71
2022/09/14 01:27:09;;;;;;;12.98;3.30;;;13.80;99.90;;;;;;5016348;28;20393;-71
2022/09/14 01:29:59;;;;;;;20.35;3.90;;;13.80;99.90;;;;;;5016992;28;20406;-71
2022/09/14 01:32:30;;;;;;;14.40;3.25;;;13.80;99.90;;;;;;5016660;28;20549;-71
2022/09/14 01:35:20;;;;;;;16.35;3.15;;;13.80;99.90;;;;;;5016720;28;20265;-71
2022/09/14 01:37:55;;;;;;;20.77;4.35;;;13.90;99.90;;;;;;5016869;28;20078;-71
2022/09/14 01:40:35;;;;;;;16.42;3.55;;;13.90;99.90;;;;;;5015886;28;20046;-72
2022/09/14 01:43:04;;;;;;;18.42;2.95;;;14.00;99.90;;;;;;5015274;28;20029;-72
2022/09/14 01:45:31;;;;;;;21.90;3.10;;;14.00;99.90;;;;;;5016487;28;20520;-72
2022/09/14 01:48:01;;;;;;;24.00;3.08;;;14.00;99.90;;;;;;5016444;28;20121;-72
2022/09/14 01:50:37;;;;;;;19.73;3.22;;;14.00;99.90;;;;;;5016909;28;20057;-72
2022/09/14 01:53:17;;;;;;;23.20;4.22;;;14.00;99.90;;;;;;5016045;28;20474;-71
2022/09/14 01:55:48;;;;;;;16.48;3.05;;;14.10;99.90;;;;;;5017687;28;20030;-71
2022/09/14 01:58:24;;;;;;;20.67;3.13;;;14.00;99.90;;;;;;5017184;28;20061;-71
2022/09/14 02:00:53;;;;;;;12.25;2.65;;;14.00;99.90;;;;;;5016037;28;20025;-71
2022/09/14 02:03:23;;;;;;;21.75;2.78;;;14.00;99.90;;;;;;5015591;28;20470;-71
2022/09/14 02:05:51;;;;;;;22.67;3.67;;;14.00;99.90;;;;;;5015914;28;20030;-71
2022/09/14 02:08:17;;;;;;;16.92;3.33;;;14.00;99.90;;;;;;5015991;28;20105;-71
2022/09/14 02:10:42;;;;;;;19.77;3.03;;;13.90;99.90;;;;;;5016110;28;20461;-71
2022/09/14 02:13:08;;;;;;;12.93;3.63;;;13.80;99.90;;;;;;5015918;28;20058;-71
2022/09/14 02:15:35;;;;;;;17.75;3.67;;;13.80;99.90;;;;;;5015892;28;20026;-71
2022/09/14 02:18:02;;;;;;;11.85;3.08;;;13.70;99.90;;;;;;5015350;28;20018;-71
2022/09/14 02:21:02;;;;;;;15.18;3.28;;;13.70;99.90;;;;;;5015857;28;20110;-71
2022/09/14 02:23:27;;;;;;;12.40;2.60;;;13.60;99.90;;;;;;5013766;28;20429;-71
2022/09/14 02:25:54;;;;;;;17.60;2.65;;;13.60;99.90;;;;;;5015645;28;20029;-71
2022/09/14 02:28:19;;;;;;;14.50;2.60;;;13.70;99.90;;;;;;5014804;28;20029;-71
2022/09/14 02:31:16;;;;;;;8.90;3.13;;;13.70;99.90;;;;;;5015468;28;20030;-71
2022/09/14 02:34:05;;;;;;;26.40;3.33;;;13.70;99.90;;;;;;5015863;28;20026;-71
2022/09/14 02:37:00;;;;;;;11.88;2.10;;;13.70;99.90;;;;;;5015677;28;20037;-71
2022/09/14 02:39:46;;;;;;;17.52;3.35;;;13.80;99.90;;;;;;5015353;28;20030;-72
2022/09/14 02:42:36;;;;;;;21.40;3.17;;;13.70;99.90;;;;;;5018529;23;1236618;-68
2022/09/14 02:45:10;;;;;;;14.48;3.00;;;13.80;99.90;;;;;;5054697;28;20032;-68
2022/09/14 02:47:58;;;;;;;18.75;2.85;;;13.80;99.90;;;;;;5054376;28;20021;-68
2022/09/14 02:50:49;;;;;;;17.65;2.60;;;13.80;99.90;;;;;;5053738;28;20107;-68
2022/09/14 02:53:34;;;;;;;18.85;3.97;;;13.80;99.90;;;;;;5034302;28;20496;-68
2022/09/14 02:56:03;;;;;;;24.60;2.70;;;13.80;99.90;;;;;;5034216;28;20037;-68
2022/09/14 02:58:40;;;;;;;19.70;2.80;;;13.80;99.90;;;;;;5034255;28;20088;-68
2022/09/14 03:01:09;;;;;;;15.80;3.78;;;13.80;99.90;;;;;;5033775;28;20037;-67
2022/09/14 03:03:34;;;;;;;13.95;3.08;;;13.90;99.90;;;;;;5034427;28;20029;-68
2022/09/14 03:06:00;;;;;;;16.75;2.33;;;13.90;99.90;;;;;;5034079;28;20032;-68
2022/09/14 03:08:26;;;;;;;15.57;2.83;;;14.00;99.90;;;;;;5032234;28;20497;-68
2022/09/14 03:10:53;;;;;;;15.82;3.72;;;14.00;99.90;;;;;;5033479;28;20067;-68
2022/09/14 03:13:19;;;;;;;12.40;2.30;;;14.10;99.90;;;;;;5034525;28;20127;-68
2022/09/14 03:15:44;;;;;;;23.13;3.63;;;14.10;99.90;;;;;;5033865;28;20094;-69
2022/09/14 03:18:10;;;;;;;15.43;2.67;;;14.20;99.90;;;;;;5033845;28;20032;-69
2022/09/14 03:20:36;;;;;;;11.30;2.55;;;14.20;99.90;;;;;;5033810;28;20095;-69
2022/09/14 03:23:03;;;;;;;17.13;3.15;;;14.20;99.90;;;;;;5033161;28;20477;-68
2022/09/14 03:25:29;;;;;;;11.70;2.38;;;14.20;99.90;;;;;;5034016;28;20079;-68
2022/09/14 03:27:57;;;;;;;16.60;2.95;;;14.20;99.90;;;;;;5033745;28;20025;-68
2022/09/14 03:30:23;;;;;;;23.08;3.83;;;14.20;99.90;;;;;;5033985;28;20026;-68
2022/09/14 03:32:49;;;;;;;23.10;3.35;;;14.20;99.90;;;;;;5033575;28;20439;-68
2022/09/14 03:35:15;;;;;;;14.93;3.03;;;14.20;99.90;;;;;;5033002;28;20096;-68
2022/09/14 03:37:42;;;;;;;13.55;2.10;;;14.30;99.90;;;;;;5032325;28;20095;-68
2022/09/14 03:40:10;;;;;;;18.02;3.35;;;14.30;99.90;;;;;;5033492;28;20021;-68
2022/09/14 03:42:36;;;;;;;12.00;2.22;;;14.30;99.90;;;;;;5033216;28;20397;-68
2022/09/14 03:45:02;;;;;;;17.20;3.22;;;14.30;99.90;;;;;;5033661;28;20029;-68
2022/09/14 03:47:28;;;;;;;17.27;2.75;;;14.30;99.90;;;;;;5033104;28;20021;-68
2022/09/14 03:49:53;;;;;;;19.70;2.25;;;14.10;99.90;;;;;;5033421;28;20113;-68
2022/09/14 03:52:19;;;;;;;17.60;2.65;;;14.00;99.90;;;;;;5033831;28;20033;-68
2022/09/14 03:54:45;;;;;;;38.33;3.00;;;13.90;99.90;;;;;;5033327;28;20025;-68
2022/09/14 03:57:10;;;;;;;13.48;2.17;;;13.80;99.90;;;;;;5033616;28;20048;-68
2022/09/14 03:59:36;;;;;;;10.73;2.03;;;13.80;99.90;;;;;;5033084;28;20026;-68
2022/09/14 04:02:02;;;;;;;17.92;2.25;;;13.80;99.90;;;;;;5033212;28;20022;-68
2022/09/14 04:04:28;;;;;;;12.73;2.22;;;13.80;99.90;;;;;;5033250;28;20504;-68
2022/09/14 04:06:53;;;;;;;13.85;2.47;;;13.80;99.90;;;;;;5033241;28;20030;-68
2022/09/14 04:09:20;;;;;;;17.30;2.25;;;13.80;99.90;;;;;;5033506;28;20048;-68
2022/09/14 04:11:46;;;;;;;8.10;1.88;;;13.80;99.90;;;;;;5033308;28;20065;-68
2022/09/14 04:14:12;;;;;;;8.85;1.83;;;13.70;99.90;;;;;;5032576;28;20393;-68
2022/09/14 04:16:39;;;;;;;14.68;2.15;;;13.80;99.90;;;;;;5033423;28;20524;-68
2022/09/14 04:19:05;;;;;;;12.20;3.20;;;13.80;99.90;;;;;;5033262;28;20026;-68
2022/09/14 04:21:31;;;;;;;15.93;2.53;;;13.80;99.90;;;;;;5032508;28;20026;-68
2022/09/14 04:23:57;;;;;;;15.18;2.60;;;13.70;99.90;;;;;;5033390;28;20036;-68
2022/09/14 04:26:25;;;;;;;13.90;2.65;;;13.70;99.90;;;;;;5033078;28;20029;-68
2022/09/14 04:28:51;;;;;;;17.17;2.30;;;13.70;99.90;;;;;;5033039;28;20040;-68
2022/09/14 04:31:17;;;;;;;11.82;1.67;;;13.70;99.90;;;;;;5032478;28;20030;-68
2022/09/14 04:33:43;;;;;;;9.55;1.85;;;13.70;99.90;;;;;;5033077;28;20095;-68
2022/09/14 04:36:14;;;;;;;10.65;2.03;;;13.70;99.90;;;;;;5033214;28;20034;-68
2022/09/14 04:38:41;;;;;;;11.45;1.88;;;13.60;99.90;;;;;;5031732;28;20030;-68
2022/09/14 04:41:19;;;;;;;14.55;1.75;;;13.60;99.90;;;;;;5032230;28;20116;-68
2022/09/14 04:43:45;;;;;;;13.75;2.28;;;13.60;99.90;;;;;;5032826;28;20548;-68
2022/09/14 04:46:13;;;;;;;12.20;2.00;;;13.50;99.90;;;;;;5032860;28;20393;-69
2022/09/14 04:48:39;;;;;;;21.23;2.83;;;13.60;99.90;;;;;;5032907;28;20037;-69
2022/09/14 04:51:06;;;;;;;8.02;1.65;;;13.50;99.90;;;;;;5032921;28;20025;-69
2022/09/14 04:53:34;;;;;;;13.88;2.28;;;13.50;99.90;;;;;;5035397;28;20087;-68
2022/09/14 04:56:01;;;;;;;11.30;2.25;;;13.50;99.90;;;;;;5036362;28;20124;-68
2022/09/14 04:58:27;;;;;;;17.80;2.13;;;13.40;99.90;;;;;;5036435;28;20033;-68
2022/09/14 05:01:04;;;;;;;10.70;2.60;;;13.50;99.90;;;;;;5036198;28;20026;-68
2022/09/14 05:03:29;;;;;;;14.93;2.58;;;13.40;99.90;;;;;;5036470;28;20037;-68
2022/09/14 05:05:59;;;;;;;25.27;2.75;;;13.40;99.90;;;;;;5036407;28;20029;-68
2022/09/14 05:08:25;;;;;;;9.80;2.63;;;13.30;99.90;;;;;;5036346;28;20021;-68
2022/09/14 05:10:54;;;;;;;12.20;2.38;;;13.30;99.90;;;;;;5035882;28;20025;-68
2022/09/14 05:13:20;;;;;;;11.90;2.25;;;13.20;99.90;;;;;;5036441;28;20029;-68
2022/09/14 05:15:45;;;;;;;13.10;1.88;;;13.10;99.90;;;;;;5036359;28;20033;-68
2022/09/14 05:18:11;;;;;;;10.88;1.77;;;13.00;99.90;;;;;;5036790;28;20178;-68
2022/09/14 05:20:36;;;;;;;7.32;2.40;;;13.00;99.90;;;;;;5035519;28;20017;-68
2022/09/14 05:23:02;;;;;;;18.75;1.88;;;12.90;99.90;;;;;;5036106;28;20040;-68
2022/09/14 05:25:28;;;;;;;14.38;2.38;;;12.90;99.90;;;;;;5036272;28;20432;-68
2022/09/14 05:27:53;;;;;;;24.25;3.92;;;12.80;99.90;;;;;;5036164;28;20072;-68
2022/09/14 05:30:19;;;;;;;15.18;2.13;;;12.80;99.90;;;;;;5035382;28;20029;-68
2022/09/14 05:32:44;;;;;;;14.38;2.40;;;12.80;99.90;;;;;;5035659;28;20029;-68
2022/09/14 05:35:10;;;;;;;16.75;2.60;;;12.80;99.90;;;;;;5035590;28;20037;-68
2022/09/14 05:37:35;;;;;;;16.13;1.95;;;12.80;99.90;;;;;;5036346;28;20034;-68
2022/09/14 05:40:01;;;;;;;14.82;2.45;;;12.80;99.90;;;;;;5035705;28;20033;-68
2022/09/14 05:42:26;;;;;;;10.93;1.90;;;12.90;99.90;;;;;;5034843;28;20049;-68
2022/09/14 05:44:52;;;;;;;16.17;1.90;;;12.90;99.90;;;;;;5036142;28;20034;-68
2022/09/14 05:47:18;;;;;;;12.95;1.95;;;12.90;99.90;;;;;;5035567;28;20052;-68
2022/09/14 05:49:43;;;;;;;14.15;2.85;;;12.90;99.90;;;;;;5036073;28;20100;-68
2022/09/14 05:52:09;;;;;;;16.77;1.70;;;12.90;99.90;;;;;;5035654;28;20025;-68
2022/09/14 05:54:34;;;;;;;12.65;2.00;;;12.90;99.90;;;;;;5034993;28;20021;-68
2022/09/14 05:57:00;;;;;;;15.45;2.58;;;12.90;99.90;;;;;;5035303;28;20029;-68
2022/09/14 05:59:25;;;;;;;11.93;2.05;;;12.90;99.90;;;;;;5035905;28;20076;-68
2022/09/14 06:01:51;;;;;;;15.18;3.40;;;12.90;99.90;;;;;;5035800;28;20096;-68
2022/09/14 06:04:16;;;;;;;7.35;1.65;;;12.90;99.90;;;;;;5034208;28;20076;-68
2022/09/14 06:06:42;;;;;;;18.10;2.40;;;13.00;99.90;;;;;;5035246;28;20567;-68
2022/09/14 06:09:08;;;;;;;9.77;1.40;;;13.00;99.90;;;;;;5034698;28;20104;-68
2022/09/14 06:11:35;;;;;;;8.95;1.88;;;13.10;99.90;;;;;;5035101;28;20021;-68
2022/09/14 06:14:01;;;;;;;9.45;1.98;;;13.30;99.90;;;;;;5035080;28;20104;-68
2022/09/14 06:16:27;;;;;;;13.57;2.22;;;13.60;99.90;;;;;;5035024;28;20112;-68
2022/09/14 06:18:55;;;;;;;18.38;3.22;;;13.80;99.90;;;;;;5035178;28;20071;-68
2022/09/14 06:21:21;;;;;;;11.60;2.13;;;13.90;99.90;;;;;;5034287;28;20021;-68
2022/09/14 06:23:48;;;;;;;14.40;2.10;;;14.10;99.90;;;;;;5035137;28;20032;-68
2022/09/14 06:26:15;;;;;;;9.02;1.80;;;14.10;99.90;;;;;;5035068;28;20030;-68
2022/09/14 06:28:41;;;;;;;9.52;2.08;;;14.10;99.90;;;;;;5034795;28;20048;-68
2022/09/14 06:31:08;;;;;;;10.60;2.17;;;14.20;99.90;;;;;;5034726;28;20140;-68
2022/09/14 06:33:35;;;;;;;9.77;1.83;;;14.20;99.90;;;;;;5034977;28;20033;-68
2022/09/14 06:36:06;;;;;;;13.60;2.20;;;14.20;99.90;;;;;;5034185;28;20025;-68
2022/09/14 06:38:32;;;;;;;12.00;1.73;;;14.20;99.90;;;;;;5034879;28;20018;-68
2022/09/14 06:41:01;;;;;;;10.75;1.73;;;14.20;99.90;;;;;;5034864;28;20033;-68
2022/09/14 06:43:29;;;;;;;10.30;1.60;;;14.20;99.90;;;;;;5034865;28;20017;-68
2022/09/14 06:46:01;;;;;;;9.02;1.30;;;14.20;99.90;;;;;;5034461;28;20075;-68
2022/09/14 06:48:33;;;;;;;13.15;2.05;;;14.30;99.90;;;;;;5034502;28;20056;-68
2022/09/14 06:50:59;;;;;;;9.00;2.25;;;14.30;99.90;;;;;;5033809;28;20500;-68
2022/09/14 06:53:25;;;;;;;8.43;1.48;;;14.40;99.90;;;;;;5034365;28;20030;-68
2022/09/14 06:55:51;;;;;;;12.02;1.77;;;14.50;99.90;;;;;;5034236;28;20435;-68
2022/09/14 06:58:17;;;;;;;15.63;2.38;;;14.50;99.90;;;;;;5034287;28;20024;-68
2022/09/14 07:00:42;;;;;;;8.10;1.45;;;14.50;99.90;;;;;;5034179;28;20022;-68
2022/09/14 07:03:08;;;;;;;13.68;2.05;;;14.50;99.90;;;;;;5034220;28;20025;-68
2022/09/14 07:05:34;;;;;;;12.40;1.92;;;14.50;99.90;;;;;;5033589;28;20026;-68
2022/09/14 07:07:59;;;;;;;15.65;2.28;;;14.60;99.90;;;;;;5034073;28;20037;-68
2022/09/14 07:10:27;;;;;;;8.60;1.92;;;14.60;99.90;;;;;;5034392;28;20033;-68
2022/09/14 07:12:57;;;;;;;8.05;1.75;;;14.60;99.90;;;;;;5034137;28;20055;-68
2022/09/14 07:15:23;;;;;;;18.50;2.67;;;14.80;99.90;;;;;;5033050;28;20029;-68
2022/09/14 07:17:49;;;;;;;7.70;1.50;;;15.00;99.90;;;;;;5031893;28;20026;-68
2022/09/14 07:20:15;;;;;;;14.13;2.40;;;15.10;99.90;;;;;;5033867;28;20148;-68
2022/09/14 07:22:41;;;;;;;17.40;2.38;;;15.20;99.90;;;;;;5033724;28;20029;-68
2022/09/14 07:25:07;;;;;;;13.13;2.35;;;15.40;99.90;;;;;;5033251;28;20041;-68
2022/09/14 07:27:33;;;;;;;18.73;2.28;;;15.50;99.90;;;;;;5033883;28;20485;-68
2022/09/14 07:29:58;;;;;;;13.60;1.83;;;15.60;99.90;;;;;;5033748;28;20064;-68
2022/09/14 07:32:24;;;;;;;12.07;2.03;;;15.80;99.90;;;;;;5034169;28;20037;-68
2022/09/14 07:34:49;;;;;;;8.90;1.95;;;15.80;99.90;;;;;;5034141;28;20025;-68
2022/09/14 07:37:15;;;;;;;14.25;1.70;;;15.90;99.90;;;;;;5033084;28;20473;-68
2022/09/14 07:39:40;;;;;;;19.10;2.95;;;15.90;99.90;;;;;;5033826;28;20529;-68
2022/09/14 07:42:06;;;;;;;15.07;2.05;;;15.90;99.90;;;;;;5033413;28;20064;-68
2022/09/14 07:44:32;;;;;;;19.85;2.28;;;16.00;99.90;;;;;;5033415;28;20022;-68
2022/09/14 07:46:57;;;;;;;17.20;2.75;;;16.00;99.90;;;;;;5032856;28;20440;-68
2022/09/14 07:49:23;;;;;;;7.50;1.52;;;16.00;99.90;;;;;;5033833;28;20032;-68
2022/09/14 07:51:48;;;;;;;19.58;2.55;;;15.90;99.90;;;;;;5033376;28;20028;-68
2022/09/14 07:54:16;;;;;;;12.93;2.00;;;15.80;99.90;;;;;;5033299;28;20077;-68
2022/09/14 07:56:44;;;;;;;13.88;2.22;;;15.80;99.90;;;;;;5032950;28;20029;-68
2022/09/14 07:59:11;;;;;;;10.85;1.52;;;15.80;99.90;;;;;;5033326;28;20022;-68
2022/09/14 08:01:36;;;;;;;23.70;2.45;;;15.90;99.90;;;;;;5033467;28;20022;-68
2022/09/14 08:04:02;;;;;;;12.32;2.10;;;16.10;99.90;;;;;;5033794;28;20025;-68
2022/09/14 08:06:29;;;;;;;8.45;1.77;;;16.30;99.90;;;;;;5033522;28;20057;-68
2022/09/14 08:08:55;;;;;;;8.75;1.55;;;16.60;99.90;;;;;;5032750;28;20029;-68
2022/09/14 08:11:29;;;;;;;8.65;1.38;;;16.70;99.90;;;;;;5033161;28;20496;-68
2022/09/14 08:13:58;;;;;;;10.45;2.60;;;17.00;99.90;;;;;;5033415;28;20025;-68
2022/09/14 08:16:25;;;;;;;10.63;2.35;;;16.90;99.90;;;;;;5033114;28;20092;-68
2022/09/14 08:18:59;;;;;;;11.15;2.08;;;16.80;99.90;;;;;;5032759;28;20484;-68
2022/09/14 08:21:25;;;;;;;12.98;2.00;;;16.80;99.90;;;;;;5033403;28;20384;-68
2022/09/14 08:23:51;;;;;;;10.70;2.25;;;16.90;99.90;;;;;;5033411;28;20032;-68
2022/09/14 08:26:20;;;;;;;27.20;2.67;;;17.00;99.90;;;;;;5033132;28;20030;-68
2022/09/14 08:28:46;;;;;;;16.73;2.10;;;16.90;99.90;;;;;;5036123;28;20037;-68
2022/09/14 08:31:23;;;;;;;12.48;2.20;;;17.10;99.90;;;;;;5036979;28;20029;-68
2022/09/14 08:34:01;;;;;;;15.05;2.00;;;17.20;99.90;;;;;;5037318;28;20025;-68
2022/09/14 08:36:30;;;;;;;18.23;1.92;;;17.60;99.90;;;;;;5037993;28;20033;-68
2022/09/14 08:38:56;;;;;;;12.80;1.95;;;18.20;99.90;;;;;;5037178;28;20013;-68
2022/09/14 08:41:42;;;;;;;13.38;2.30;;;18.20;99.90;;;;;;5075192;23;20064;-71
2022/09/14 08:44:10;;;;;;;5.93;1.80;;;17.80;99.90;;;;;;5057385;28;20039;-72
2022/09/14 08:46:39;;;;;;;10.95;1.65;;;17.40;99.90;;;;;;5057768;28;20040;-72
2022/09/14 08:49:31;;;;;;;8.13;1.80;;;17.30;99.90;;;;;;5057276;28;20051;-72
2022/09/14 08:51:57;;;;;;;8.57;1.77;;;17.00;99.90;;;;;;5046121;28;20043;-71
2022/09/14 08:54:22;;;;;;;6.80;1.50;;;16.90;99.90;;;;;;5056949;28;20033;-71
2022/09/14 08:57:00;;;;;;;10.70;2.35;;;16.90;99.90;;;;;;5056747;28;20143;-71
2022/09/14 08:59:46;;;;;;;8.32;1.60;;;16.90;99.90;;;;;;5057453;28;20021;-71
2022/09/14 09:02:45;;;;;;;14.80;1.90;;;16.90;99.90;;;;;;5057227;28;20424;-72
2022/09/14 09:05:33;;;;;;;7.78;1.63;;;16.90;99.90;;;;;;5049555;28;20041;-72
2022/09/14 09:08:19;;;;;;;14.73;2.70;;;16.80;99.90;;;;;;5056621;28;20385;-72
2022/09/14 09:10:46;;;;;;;10.30;2.20;;;16.80;99.90;;;;;;5056597;28;20060;-72
2022/09/14 09:13:17;;;;;;;9.48;2.47;;;16.80;99.90;;;;;;5056729;28;20104;-72
2022/09/14 09:15:46;;;;;;;9.73;1.75;;;16.70;99.90;;;;;;5056866;28;20112;-71
2022/09/14 09:18:41;;;;;;;12.60;2.55;;;16.80;99.90;;;;;;5057194;28;20531;-71
2022/09/14 09:21:15;;;;;;;12.20;2.10;;;16.90;99.90;;;;;;5056227;28;20029;-73
2022/09/14 09:23:41;;;;;;;17.17;2.78;;;16.90;99.90;;;;;;5056602;28;20071;-72
2022/09/14 09:26:24;;;;;;;13.95;2.28;;;17.10;99.90;;;;;;5056481;28;20092;-72
2022/09/14 09:28:53;;;;;;;10.93;2.05;;;17.30;99.90;;;;;;5056653;28;20387;-72
2022/09/14 09:31:33;;;;;;;5.63;1.65;;;17.50;99.90;;;;;;5056415;28;20047;-73
2022/09/14 09:33:59;;;;;;;13.48;1.85;;;17.70;99.90;;;;;;5055987;28;20033;-72
2022/09/14 09:36:28;;;;;;;10.73;2.53;;;17.90;99.90;;;;;;5056512;28;20388;-71
2022/09/14 09:38:54;;;;;;;7.18;1.48;;;17.90;99.90;;;;;;5056232;28;20027;-72
2022/09/14 09:41:26;;;;;;;13.32;1.65;;;17.90;99.90;;;;;;5056331;28;20440;-72
2022/09/14 09:43:59;;;;;;;8.63;2.13;;;17.90;99.90;;;;;;5056436;28;20538;-72
2022/09/14 09:46:28;;;;;;;7.20;1.48;;;17.80;99.90;;;;;;5055697;28;20028;-71
2022/09/14 09:48:55;;;;;;;11.18;1.83;;;17.80;99.90;;;;;;5055956;28;20036;-72
2022/09/14 09:51:23;;;;;;;9.55;2.28;;;17.60;99.90;;;;;;5056406;28;20029;-71
2022/09/14 09:53:54;;;;;;;12.20;1.55;;;17.60;99.90;;;;;;5056078;28;20503;-72
2022/09/14 09:56:26;;;;;;;8.27;1.70;;;17.60;99.90;;;;;;5056036;28;20125;-72
2022/09/14 09:58:52;;;;;;;9.20;1.23;;;17.50;99.90;;;;;;5056276;28;20457;-72
2022/09/14 10:01:31;;;;;;;9.00;2.47;;;17.40;99.90;;;;;;5055306;28;20031;-71
2022/09/14 10:04:02;;;;;;;10.45;1.58;;;17.40;99.90;;;;;;5056106;28;20013;-73
2022/09/14 10:06:28;;;;;;;13.15;1.40;;;17.60;99.90;;;;;;5055835;28;20047;-72
2022/09/14 10:08:56;;;;;;;6.05;1.30;;;17.60;99.90;;;;;;5056332;28;20525;-72
2022/09/14 10:11:29;;;;;;;5.72;1.25;;;17.70;99.90;;;;;;5055170;28;20032;-72
2022/09/14 10:13:55;;;;;;;3.70;1.05;;;17.60;99.90;;;;;;5054655;28;20108;-71
2022/09/14 10:16:22;;;;;;;10.85;2.03;;;17.50;99.90;;;;;;5055741;28;20044;-72
2022/09/14 10:18:51;;;;;;;3.25;1.25;;;17.50;99.90;;;;;;5055513;28;20048;-72
2022/09/14 10:21:19;;;;;;;9.50;1.35;;;17.70;99.90;;;;;;5056853;28;20017;-72
2022/09/14 10:23:45;;;;;;;20.83;1.65;;;17.80;99.90;;;;;;5057100;28;20422;-72
2022/09/14 10:26:11;;;;;;;5.60;1.10;;;17.70;99.90;;;;;;5055791;28;20025;-72
2022/09/14 10:28:38;;;;;;;7.05;1.30;;;17.60;99.90;;;;;;5055540;28;20047;-72
2022/09/14 10:31:16;;;;;;;11.00;1.33;;;17.90;99.90;;;;;;5054658;28;20025;-71
2022/09/14 10:33:43;;;;;;;3.45;0.77;;;18.10;99.90;;;;;;5055421;28;20490;-72
2022/09/14 10:36:31;;;;;;;6.97;0.88;;;18.20;99.90;;;;;;5055507;28;20055;-72
2022/09/14 10:39:15;;;;;;;3.38;0.75;;;18.30;99.90;;;;;;5054903;28;20025;-71
2022/09/14 10:42:05;;;;;;;7.70;0.73;;;18.00;99.90;;;;;;5055023;28;20113;-72
2022/09/14 10:45:03;;;;;;;15.43;1.70;;;17.80;99.90;;;;;;5055368;28;20021;-72
2022/09/14 10:47:48;;;;;;;9.52;1.60;;;17.40;99.90;;;;;;5054749;28;20024;-72
2022/09/14 10:50:32;;;;;;;4.90;1.35;;;17.00;99.90;;;;;;5054776;28;20123;-72
2022/09/14 10:53:09;;;;;;;14.55;1.92;;;16.90;99.90;;;;;;5054911;28;20025;-72
2022/09/14 10:55:50;;;;;;;6.43;1.33;;;16.60;99.90;;;;;;5054708;28;20052;-72
2022/09/14 10:58:47;;;;;;;9.57;1.83;;;16.40;99.90;;;;;;5055139;28;20025;-72
2022/09/14 11:01:28;;;;;;;3.60;0.80;;;16.50;99.90;;;;;;5054379;28;20376;-71
2022/09/14 11:04:40;;;;;;;6.50;1.00;;;16.70;99.90;;;;;;5054933;28;20042;-72
2022/09/14 11:07:17;;;;;;;2.22;0.90;;;17.00;99.90;;;;;;5055053;28;20481;-72
2022/09/14 11:10:04;;;;;;;10.90;1.05;;;17.60;99.90;;;;;;5055202;28;20090;-72
2022/09/14 11:12:46;;;;;;;5.03;0.90;;;18.20;99.90;;;;;;5054065;28;20028;-72
2022/09/14 11:15:35;;;;;;;2.80;0.82;;;18.60;99.90;;;;;;5054723;28;20021;-72
2022/09/14 11:18:09;;;;;;;6.88;1.02;;;18.30;99.90;;;;;;5034470;28;20112;-71
2022/09/14 11:20:56;;;;;;;6.97;1.50;;;18.30;99.90;;;;;;5035241;28;20373;-72
2022/09/14 11:23:39;;;;;;;7.70;1.88;;;17.90;99.90;;;;;;5039233;28;20027;-71
2022/09/14 11:26:14;;;;;;;3.70;1.15;;;17.60;99.90;;;;;;5054313;28;20499;-72
2022/09/14 11:28:51;;;;;;;12.85;1.50;;;17.20;99.90;;;;;;5054521;28;20447;-71
2022/09/14 11:31:27;;;;;;;14.40;1.58;;;17.10;99.90;;;;;;5053820;28;20468;-71
2022/09/14 11:34:36;;;;;;;9.10;1.20;;;17.10;99.90;;;;;;5052919;28;20115;-72
2022/09/14 11:37:15;;;;;;;13.45;2.00;;;17.20;99.90;;;;;;5054760;28;20036;-72
2022/09/14 11:40:03;;;;;;;7.47;1.23;;;17.30;99.90;;;;;;5053946;28;20016;-72
2022/09/14 11:43:08;;;;;;;7.20;1.30;;;17.30;99.90;;;;;;5053469;28;20041;-72
2022/09/14 11:45:53;;;;;;;8.65;1.75;;;17.10;99.90;;;;;;5052126;28;20124;-72
2022/09/14 11:48:23;;;;;;;12.05;1.80;;;17.00;99.90;;;;;;5054090;28;20108;-72
2022/09/14 11:50:52;;;;;;;6.95;1.50;;;16.50;99.90;;;;;;5053434;28;20460;-71
2022/09/14 11:53:18;;;;;;;4.90;1.05;;;16.10;99.90;;;;;;5053929;28;20037;-72
2022/09/14 11:55:46;;;;;;;14.55;1.30;;;16.00;99.90;;;;;;5053918;28;20430;-72
2022/09/14 11:58:24;;;;;;;10.13;1.17;;;16.20;99.90;;;;;;5053911;28;20021;-72
2022/09/14 12:01:01;;;;;;;2.72;1.00;;;16.70;99.90;;;;;;5053792;28;20104;-71
2022/09/14 12:03:50;;;;;;;9.48;1.42;;;17.10;99.90;;;;;;5052602;28;20100;-72
2022/09/14 12:06:27;;;;;;;3.85;1.00;;;17.30;99.90;;;;;;5054216;28;20059;-72
2022/09/14 12:08:53;;;;;;;10.20;2.05;;;17.50;99.90;;;;;;5053817;28;20040;-72
2022/09/14 12:11:31;;;;;;;2.33;0.70;;;17.80;99.90;;;;;;5053692;28;20452;-71
2022/09/14 12:14:29;;;;;;;6.60;1.42;;;17.90;99.90;;;;;;5053652;28;20388;-72
2022/09/14 12:17:33;;;;;;;12.18;1.33;;;17.70;99.90;;;;;;5053289;28;20098;-72
2022/09/14 12:20:26;;;;;;;3.83;1.08;;;17.50;99.90;;;;;;5053694;28;20412;-71
2022/09/14 12:23:12;;;;;;;5.10;0.88;;;17.40;99.90;;;;;;5052598;28;20117;-72
2022/09/14 12:25:39;;;;;;;6.30;1.10;;;17.20;99.90;;;;;;5054298;28;20043;-72
2022/09/14 12:28:29;;;;;;;1.52;0.73;;;17.40;99.90;;;;;;5053187;28;20484;-71
2022/09/14 12:30:55;;;;;;;4.10;0.57;;;18.00;99.90;;;;;;5053888;28;20426;-71
2022/09/14 12:33:32;;;;;;;10.05;0.70;;;18.60;99.90;;;;;;5054589;28;20025;-72
2022/09/14 12:36:06;;;;;;;2.17;0.40;;;18.90;99.90;;;;;;5053677;28;20120;-72
2022/09/14 12:39:00;;;;;;;1.05;0.45;;;19.30;99.90;;;;;;5052990;28;20485;-72
2022/09/14 12:41:26;;;;;;;1.80;0.50;;;19.70;99.90;;;;;;5033941;28;20037;-71
2022/09/14 12:43:55;;;;;;;5.15;0.75;;;19.30;99.90;;;;;;5054273;28;20048;-72
2022/09/14 12:46:20;;;;;;;1.42;0.40;;;19.10;99.90;;;;;;5054497;28;20116;-71
2022/09/14 12:48:46;;;;;;;2.13;0.52;;;19.60;99.90;;;;;;5054337;28;20420;-72
2022/09/14 12:51:29;;;;;;;2.75;0.50;;;19.80;99.90;;;;;;5053586;28;20052;-71
2022/09/14 12:53:57;;;;;;;2.80;0.60;;;19.60;99.90;;;;;;5053687;28;20078;-71
2022/09/14 12:57:00;;;;;;;2.25;0.68;;;19.00;99.90;;;;;;5053131;28;20526;-71
2022/09/14 12:59:38;;;;;;;1.15;0.50;;;18.70;99.90;;;;;;5053296;28;20036;-71
2022/09/14 13:02:42;;;;;;;5.95;1.85;;;18.40;99.90;;;;;;5052787;28;20021;-71
2022/09/14 13:05:14;;;;;;;12.63;1.90;;;18.30;99.90;;;;;;5053748;28;20028;-71
2022/09/14 13:07:41;;;;;;;3.28;1.80;;;18.30;99.90;;;;;;5053612;28;20029;-71